createdAt,value
2023-03-25T00:02:11.292Z,100648.17
2023-03-25T00:04:48.476Z,100651.08
2023-03-25T00:07:35.829Z,100648.54
2023-03-25T00:10:08.199Z,100645.41
2023-03-25T00:12:41.937Z,100645.37
2023-03-25T00:15:15.607Z,100643.80
2023-03-25T00:17:53.554Z,100642.85
2023-03-25T00:26:33.973Z,100639.80
2023-03-25T00:29:03.543Z,100636.62
2023-03-25T00:31:36.158Z,100636.49
2023-03-25T00:34:15.761Z,100638.73
2023-03-25T00:36:49.206Z,100638.77
2023-03-25T00:39:18.402Z,100633.85
2023-03-25T00:42:09.712Z,100639.23
2023-03-25T00:44:44.445Z,100637.42
2023-03-25T00:50:26.329Z,100643.09
2023-03-25T00:54:05.669Z,100642.04
2023-03-25T00:57:09.298Z,100635.23
2023-03-25T00:59:41.605Z,100635.45
2023-03-25T01:03:22.064Z,100636.86
2023-03-25T01:17:52.179Z,100633.11
2023-03-25T01:27:31.539Z,100631.77
2023-03-25T01:40:48.681Z,100627.00
2023-03-25T01:46:27.024Z,100631.05
2023-03-25T01:49:17.239Z,100628.10
2023-03-25T01:52:40.452Z,100633.86
2023-03-25T09:01:26.590Z,100558.14
2023-03-25T09:04:00.129Z,100557.75
2023-03-25T09:06:48.064Z,100558.58
2023-03-25T09:10:59.517Z,100563.77
2023-03-25T09:45:31.279Z,100553.38
2023-03-25T09:48:45.354Z,100551.30
2023-03-25T09:51:17.652Z,100547.42
2023-03-25T09:54:16.870Z,100541.35
2023-03-25T09:56:47.650Z,100542.18
2023-03-25T09:59:20.343Z,100544.84
2023-03-25T10:02:04.583Z,100540.51
2023-03-25T10:05:00.482Z,100536.14
2023-03-25T10:08:13.063Z,100531.69
2023-03-25T10:11:03.262Z,100529.38
2023-03-25T10:14:46.399Z,100527.48
2023-03-25T10:18:40.488Z,100521.43
2023-03-25T10:24:46.012Z,100518.90
2023-03-25T10:27:37.018Z,100514.09
2023-03-25T10:30:27.543Z,100513.39
2023-03-25T10:33:01.844Z,100505.27
2023-03-25T10:40:40.511Z,100498.67
2023-03-25T10:43:46.403Z,100498.91
2023-03-25T10:47:06.900Z,100489.86
2023-03-25T10:49:37.043Z,100487.71
2023-03-25T10:56:56.547Z,100475.61
2023-03-25T10:59:58.634Z,100472.64
2023-03-25T11:03:21.884Z,100465.80
2023-03-25T11:06:00.394Z,100461.45
2023-03-25T11:08:52.880Z,100453.41
2023-03-25T11:11:39.574Z,100454.89
2023-03-25T11:14:38.525Z,100453.02
2023-03-25T11:17:45.911Z,100445.36
2023-03-25T11:24:23.847Z,100433.34
2023-03-25T11:26:57.958Z,100429.95
2023-03-25T11:29:30.832Z,100429.34
2023-03-25T11:32:38.748Z,100425.58
2023-03-25T11:44:52.063Z,100410.85
2023-03-25T12:00:18.558Z,100386.15
2023-03-25T12:03:33.206Z,100384.42
2023-03-25T12:06:59.612Z,100382.04
2023-03-25T14:46:28.678Z,100232.61
2023-03-25T14:56:52.722Z,100227.30
2023-03-25T15:18:02.099Z,100219.77
2023-03-25T15:25:02.558Z,100212.39
2023-03-25T15:28:19.557Z,100218.34
2023-03-25T15:31:21.132Z,100214.27
2023-03-25T15:34:09.033Z,100217.05
2023-03-25T15:37:43.144Z,100217.17
2023-03-25T15:40:41.033Z,100218.29
2023-03-25T15:43:59.654Z,100219.38
2023-03-25T15:47:51.875Z,100217.02
2023-03-25T15:51:12.134Z,100218.84
2023-03-25T15:54:09.217Z,100218.19
2023-03-25T15:56:48.594Z,100215.51
2023-03-25T15:59:53.638Z,100216.64
2023-03-25T21:22:09.802Z,100150.77
2023-03-25T21:45:14.529Z,100141.25
2023-03-25T21:48:10.630Z,100140.82
2023-03-25T21:50:59.171Z,100140.76
2023-03-25T21:54:14.005Z,100140.38
2023-03-25T22:00:18.349Z,100142.58
2023-03-25T22:10:17.280Z,100134.42
2023-03-25T22:13:28.469Z,100136.65
2023-03-25T22:19:47.077Z,100124.38
2023-03-25T22:22:46.235Z,100124.48
2023-03-25T22:25:35.302Z,100119.08
2023-03-25T22:29:32.826Z,100124.84
2023-03-25T22:32:10.540Z,100129.76
2023-03-25T22:34:43.763Z,100123.80
2023-03-25T22:37:22.366Z,100117.62
2023-03-25T22:39:54.889Z,100116.46
2023-03-25T22:49:05.895Z,100106.64
2023-03-25T22:51:48.572Z,100103.73
2023-03-25T22:54:32.162Z,100099.55
2023-03-25T22:57:07.837Z,100096.95
2023-03-25T22:59:39.044Z,100096.49
2023-03-25T23:02:25.804Z,100096.48
2023-03-25T23:12:06.182Z,100095.36
2023-03-25T23:18:45.790Z,100085.09
2023-03-25T23:25:19.255Z,100077.37
2023-03-25T23:28:21.246Z,100076.60
2023-03-25T23:31:40.687Z,100075.85
2023-03-25T23:38:11.679Z,100071.32
2023-03-25T23:41:32.186Z,100069.55
2023-03-25T23:44:04.127Z,100063.89
2023-03-25T23:46:47.829Z,100052.48
2023-03-25T23:49:27.692Z,100055.93
2023-03-25T23:51:59.839Z,100052.25
2023-03-25T23:54:29.757Z,100053.04
